La Belle, Florida
Current Conditions -  °F | °C
As of 8:35 AM on Friday 28 Nov 2014 (Local Time) from KIMM Reporting Station
Clear Clear  
Wind Chill: 45°   Ceiling: Unl
Heat Index: 48°   Visibility: 10mi
Dew Point: 45°   Wind: 7mph
Humidity: 87%   Direction: 360°N
Pressure: 30.3"   Gusts: NA
Location:  26.76°N, 81.44°W
Report Text: KIMM 281335Z AUTO 36006KT 10SM CLR 09/07 A3030 RMK A01 P000
Loading
Personal Weather Stations






























Interactive Weather Map New forecast layout! Learn more

10-Day Weather Forecast

Advertisements
Track Severe Weather on mobile